sensor_id;sensor_type;location;lat;lon;timestamp;temperature;humidity
12289;DHT22;6207;49.308;7.336;2022-08-21T07:37:44;18.30;99.90
12289;DHT22;6207;49.308;7.336;2022-08-21T07:41:26;19.00;99.90
12289;DHT22;6207;49.308;7.336;2022-08-21T07:43:56;19.20;99.90
12289;DHT22;6207;49.308;7.336;2022-08-21T07:46:24;18.90;30.90
12289;DHT22;6207;49.308;7.336;2022-08-21T07:48:51;19.00;99.90
12289;DHT22;6207;49.308;7.336;2022-08-21T07:51:21;19.20;99.90
12289;DHT22;6207;49.308;7.336;2022-08-21T07:53:53;19.40;77.30
12289;DHT22;6207;49.308;7.336;2022-08-21T07:56:21;19.80;99.90
12289;DHT22;6207;49.308;7.336;2022-08-21T07:58:48;20.20;41.40
12289;DHT22;6207;49.308;7.336;2022-08-21T08:01:15;21.40;99.90
12289;DHT22;6207;49.308;7.336;2022-08-21T08:03:42;21.50;1.00
12289;DHT22;6207;49.308;7.336;2022-08-21T08:06:09;20.80;1.00
12289;DHT22;6207;49.308;7.336;2022-08-21T08:08:39;20.40;1.00
12289;DHT22;6207;49.308;7.336;2022-08-21T08:11:08;20.20;1.00
12289;DHT22;6207;49.308;7.336;2022-08-21T08:13:47;20.40;1.00
12289;DHT22;6207;49.308;7.336;2022-08-21T08:16:15;20.60;1.00
12289;DHT22;6207;49.308;7.336;2022-08-21T08:18:42;21.00;1.00
12289;DHT22;6207;49.308;7.336;2022-08-21T08:21:12;21.50;1.00
12289;DHT22;6207;49.308;7.336;2022-08-21T08:23:39;21.60;1.00
12289;DHT22;6207;49.308;7.336;2022-08-21T08:26:06;21.70;1.00
12289;DHT22;6207;49.308;7.336;2022-08-21T08:28:33;21.80;1.00
12289;DHT22;6207;49.308;7.336;2022-08-21T08:31:00;22.00;1.00
12289;DHT22;6207;49.308;7.336;2022-08-21T08:33:27;22.20;1.00
12289;DHT22;6207;49.308;7.336;2022-08-21T08:35:54;21.90;1.00
12289;DHT22;6207;49.308;7.336;2022-08-21T08:38:23;22.10;1.00
12289;DHT22;6207;49.308;7.336;2022-08-21T08:41:17;22.10;1.00
12289;DHT22;6207;49.308;7.336;2022-08-21T08:43:58;22.40;1.00
12289;DHT22;6207;49.308;7.336;2022-08-21T08:46:33;22.30;1.00
12289;DHT22;6207;49.308;7.336;2022-08-21T08:52:01;22.80;1.00
12289;DHT22;6207;49.308;7.336;2022-08-21T08:54:33;22.90;1.00
12289;DHT22;6207;49.308;7.336;2022-08-21T08:57:03;22.90;1.00
12289;DHT22;6207;49.308;7.336;2022-08-21T08:59:42;22.90;1.00
12289;DHT22;6207;49.308;7.336;2022-08-21T09:02:12;23.40;1.00
12289;DHT22;6207;49.308;7.336;2022-08-21T09:04:40;23.30;1.00
12289;DHT22;6207;49.308;7.336;2022-08-21T09:23:43;23.20;1.00
12289;DHT22;6207;49.308;7.336;2022-08-21T09:28:40;23.10;1.00
12289;DHT22;6207;49.308;7.336;2022-08-21T09:31:28;23.70;1.00
12289;DHT22;6207;49.308;7.336;2022-08-21T09:34:07;23.50;1.00
12289;DHT22;6207;49.308;7.336;2022-08-21T09:39:07;23.50;99.90
12289;DHT22;6207;49.308;7.336;2022-08-21T09:41:36;23.80;1.00
12289;DHT22;6207;49.308;7.336;2022-08-21T09:44:05;23.90;1.00
12289;DHT22;6207;49.308;7.336;2022-08-21T09:46:32;24.60;99.90
12289;DHT22;6207;49.308;7.336;2022-08-21T09:49:02;24.60;99.90
12289;DHT22;6207;49.308;7.336;2022-08-21T09:51:35;24.40;1.00
12289;DHT22;6207;49.308;7.336;2022-08-21T09:59:40;23.80;1.00
12289;DHT22;6207;49.308;7.336;2022-08-21T10:02:29;24.00;99.90
12289;DHT22;6207;49.308;7.336;2022-08-21T10:11:27;24.20;99.90
12289;DHT22;6207;49.308;7.336;2022-08-21T10:14:07;24.70;1.00
12289;DHT22;6207;49.308;7.336;2022-08-21T10:16:42;24.30;99.90
12289;DHT22;6207;49.308;7.336;2022-08-21T10:19:29;24.70;99.90
12289;DHT22;6207;49.308;7.336;2022-08-21T10:22:32;24.70;1.00
12289;DHT22;6207;49.308;7.336;2022-08-21T10:25:33;24.60;99.90
12289;DHT22;6207;49.308;7.336;2022-08-21T10:31:03;24.80;99.90
12289;DHT22;6207;49.308;7.336;2022-08-21T10:36:30;24.70;1.00
12289;DHT22;6207;49.308;7.336;2022-08-21T10:47:34;24.70;1.00
12289;DHT22;6207;49.308;7.336;2022-08-21T10:56:18;24.60;99.90
12289;DHT22;6207;49.308;7.336;2022-08-21T11:01:52;25.00;99.90
12289;DHT22;6207;49.308;7.336;2022-08-21T11:04:26;25.00;1.00
12289;DHT22;6207;49.308;7.336;2022-08-21T11:07:33;25.20;1.00
12289;DHT22;6207;49.308;7.336;2022-08-21T11:12:51;25.00;1.00
12289;DHT22;6207;49.308;7.336;2022-08-21T11:15:47;24.90;1.00
12289;DHT22;6207;49.308;7.336;2022-08-21T11:21:45;24.80;1.00
12289;DHT22;6207;49.308;7.336;2022-08-21T11:27:34;25.10;1.00
12289;DHT22;6207;49.308;7.336;2022-08-21T11:30:06;25.20;1.00
12289;DHT22;6207;49.308;7.336;2022-08-21T11:40:52;24.90;1.00
12289;DHT22;6207;49.308;7.336;2022-08-21T11:43:40;24.90;1.00
12289;DHT22;6207;49.308;7.336;2022-08-21T11:52:27;25.10;1.00
12289;DHT22;6207;49.308;7.336;2022-08-21T11:55:08;25.20;1.00
12289;DHT22;6207;49.308;7.336;2022-08-21T12:00:22;25.80;1.00
12289;DHT22;6207;49.308;7.336;2022-08-21T12:02:55;25.70;1.00
12289;DHT22;6207;49.308;7.336;2022-08-21T12:05:41;25.60;1.00
12289;DHT22;6207;49.308;7.336;2022-08-21T12:11:09;25.50;1.00
12289;DHT22;6207;49.308;7.336;2022-08-21T12:14:14;25.50;1.00
12289;DHT22;6207;49.308;7.336;2022-08-21T12:16:47;25.50;1.00
12289;DHT22;6207;49.308;7.336;2022-08-21T12:21:59;25.30;1.00
